sensor_id;sensor_type;location;lat;lon;timestamp;P1;durP1;ratioP1;P2;durP2;ratioP2
33327;SDS011;19692;52.998;9.116;2023-05-07T00:01:27;16.70;;;15.00;;
33327;SDS011;19692;52.998;9.116;2023-05-07T00:03:53;18.00;;;15.70;;
33327;SDS011;19692;52.998;9.116;2023-05-07T00:06:19;17.50;;;15.73;;
33327;SDS011;19692;52.998;9.116;2023-05-07T00:08:45;18.43;;;15.90;;
33327;SDS011;19692;52.998;9.116;2023-05-07T00:11:10;17.87;;;15.97;;
33327;SDS011;19692;52.998;9.116;2023-05-07T00:13:36;19.20;;;16.53;;
33327;SDS011;19692;52.998;9.116;2023-05-07T00:16:02;18.93;;;16.57;;
33327;SDS011;19692;52.998;9.116;2023-05-07T00:18:28;18.30;;;16.50;;
33327;SDS011;19692;52.998;9.116;2023-05-07T00:20:54;19.90;;;17.83;;
33327;SDS011;19692;52.998;9.116;2023-05-07T00:23:21;20.03;;;15.87;;
33327;SDS011;19692;52.998;9.116;2023-05-07T00:25:47;19.63;;;17.17;;
33327;SDS011;19692;52.998;9.116;2023-05-07T00:28:13;18.87;;;16.87;;
33327;SDS011;19692;52.998;9.116;2023-05-07T00:30:38;19.13;;;16.83;;
33327;SDS011;19692;52.998;9.116;2023-05-07T00:33:04;18.13;;;16.27;;
33327;SDS011;19692;52.998;9.116;2023-05-07T00:35:30;18.23;;;16.30;;
33327;SDS011;19692;52.998;9.116;2023-05-07T00:37:57;17.43;;;15.63;;
33327;SDS011;19692;52.998;9.116;2023-05-07T00:40:23;18.30;;;16.40;;
33327;SDS011;19692;52.998;9.116;2023-05-07T00:42:49;18.80;;;16.87;;
33327;SDS011;19692;52.998;9.116;2023-05-07T00:45:15;18.33;;;16.40;;
33327;SDS011;19692;52.998;9.116;2023-05-07T00:47:41;20.73;;;17.07;;
33327;SDS011;19692;52.998;9.116;2023-05-07T00:50:08;18.77;;;16.23;;
33327;SDS011;19692;52.998;9.116;2023-05-07T00:52:37;18.87;;;16.90;;
33327;SDS011;19692;52.998;9.116;2023-05-07T00:55:04;21.23;;;17.10;;
33327;SDS011;19692;52.998;9.116;2023-05-07T00:57:36;19.30;;;16.47;;
33327;SDS011;19692;52.998;9.116;2023-05-07T01:00:06;19.03;;;16.90;;
33327;SDS011;19692;52.998;9.116;2023-05-07T01:02:34;18.43;;;16.53;;
33327;SDS011;19692;52.998;9.116;2023-05-07T01:05:00;18.00;;;15.23;;
33327;SDS011;19692;52.998;9.116;2023-05-07T01:07:28;18.43;;;16.20;;
33327;SDS011;19692;52.998;9.116;2023-05-07T01:09:54;17.33;;;15.47;;
33327;SDS011;19692;52.998;9.116;2023-05-07T01:12:20;19.13;;;17.13;;
33327;SDS011;19692;52.998;9.116;2023-05-07T01:14:47;18.50;;;15.93;;
33327;SDS011;19692;52.998;9.116;2023-05-07T01:17:14;18.50;;;16.50;;
33327;SDS011;19692;52.998;9.116;2023-05-07T01:19:41;19.50;;;16.97;;
33327;SDS011;19692;52.998;9.116;2023-05-07T01:22:08;18.13;;;15.93;;
33327;SDS011;19692;52.998;9.116;2023-05-07T01:24:36;19.20;;;15.70;;
33327;SDS011;19692;52.998;9.116;2023-05-07T01:27:02;16.90;;;14.77;;
33327;SDS011;19692;52.998;9.116;2023-05-07T01:29:29;18.63;;;16.00;;
33327;SDS011;19692;52.998;9.116;2023-05-07T01:31:56;18.17;;;14.93;;
33327;SDS011;19692;52.998;9.116;2023-05-07T01:34:24;17.80;;;15.90;;
33327;SDS011;19692;52.998;9.116;2023-05-07T01:36:54;18.47;;;15.43;;
33327;SDS011;19692;52.998;9.116;2023-05-07T01:39:30;18.30;;;15.50;;
33327;SDS011;19692;52.998;9.116;2023-05-07T01:41:57;18.03;;;16.13;;
33327;SDS011;19692;52.998;9.116;2023-05-07T01:44:24;17.90;;;15.00;;
33327;SDS011;19692;52.998;9.116;2023-05-07T01:46:51;20.37;;;15.87;;
33327;SDS011;19692;52.998;9.116;2023-05-07T01:49:17;17.07;;;15.13;;
33327;SDS011;19692;52.998;9.116;2023-05-07T01:51:43;17.57;;;15.67;;
33327;SDS011;19692;52.998;9.116;2023-05-07T01:54:09;19.07;;;15.10;;
33327;SDS011;19692;52.998;9.116;2023-05-07T01:56:35;19.00;;;15.03;;
33327;SDS011;19692;52.998;9.116;2023-05-07T01:59:01;17.33;;;15.17;;
33327;SDS011;19692;52.998;9.116;2023-05-07T02:01:27;18.17;;;15.53;;
33327;SDS011;19692;52.998;9.116;2023-05-07T02:03:53;21.57;;;15.17;;
33327;SDS011;19692;52.998;9.116;2023-05-07T02:06:19;17.73;;;15.57;;
33327;SDS011;19692;52.998;9.116;2023-05-07T02:08:45;19.30;;;15.50;;
33327;SDS011;19692;52.998;9.116;2023-05-07T02:11:12;18.53;;;14.97;;
33327;SDS011;19692;52.998;9.116;2023-05-07T02:13:38;18.33;;;15.80;;
33327;SDS011;19692;52.998;9.116;2023-05-07T02:16:04;18.63;;;16.47;;
33327;SDS011;19692;52.998;9.116;2023-05-07T02:18:30;18.40;;;15.90;;
33327;SDS011;19692;52.998;9.116;2023-05-07T02:20:56;19.77;;;16.70;;
33327;SDS011;19692;52.998;9.116;2023-05-07T02:23:22;18.13;;;15.60;;
33327;SDS011;19692;52.998;9.116;2023-05-07T02:25:48;20.40;;;15.97;;
33327;SDS011;19692;52.998;9.116;2023-05-07T02:28:14;20.10;;;15.97;;
33327;SDS011;19692;52.998;9.116;2023-05-07T02:30:40;18.60;;;15.50;;
33327;SDS011;19692;52.998;9.116;2023-05-07T02:33:06;19.30;;;15.40;;
33327;SDS011;19692;52.998;9.116;2023-05-07T02:35:33;20.20;;;16.60;;
33327;SDS011;19692;52.998;9.116;2023-05-07T02:37:58;20.73;;;14.83;;
33327;SDS011;19692;52.998;9.116;2023-05-07T02:40:24;18.77;;;16.60;;
33327;SDS011;19692;52.998;9.116;2023-05-07T02:42:50;17.97;;;15.30;;
33327;SDS011;19692;52.998;9.116;2023-05-07T02:45:16;20.60;;;16.40;;
33327;SDS011;19692;52.998;9.116;2023-05-07T02:47:41;19.20;;;15.37;;
33327;SDS011;19692;52.998;9.116;2023-05-07T02:50:07;18.37;;;15.43;;
33327;SDS011;19692;52.998;9.116;2023-05-07T02:52:33;17.23;;;14.80;;
33327;SDS011;19692;52.998;9.116;2023-05-07T02:54:58;20.13;;;15.83;;
33327;SDS011;19692;52.998;9.116;2023-05-07T02:57:24;17.73;;;15.10;;
33327;SDS011;19692;52.998;9.116;2023-05-07T02:59:50;19.33;;;15.33;;
33327;SDS011;19692;52.998;9.116;2023-05-07T03:02:16;16.80;;;14.37;;
33327;SDS011;19692;52.998;9.116;2023-05-07T03:04:42;18.07;;;15.37;;
33327;SDS011;19692;52.998;9.116;2023-05-07T03:07:07;16.70;;;14.90;;
33327;SDS011;19692;52.998;9.116;2023-05-07T03:09:33;17.03;;;15.10;;
33327;SDS011;19692;52.998;9.116;2023-05-07T03:11:59;18.27;;;15.23;;
33327;SDS011;19692;52.998;9.116;2023-05-07T03:14:24;17.10;;;14.40;;
33327;SDS011;19692;52.998;9.116;2023-05-07T03:16:50;16.40;;;14.10;;
33327;SDS011;19692;52.998;9.116;2023-05-07T03:19:16;17.80;;;13.83;;
33327;SDS011;19692;52.998;9.116;2023-05-07T03:21:42;18.80;;;15.33;;
33327;SDS011;19692;52.998;9.116;2023-05-07T03:24:07;16.47;;;14.10;;
33327;SDS011;19692;52.998;9.116;2023-05-07T03:26:33;18.93;;;14.23;;
33327;SDS011;19692;52.998;9.116;2023-05-07T03:28:59;16.07;;;13.60;;
33327;SDS011;19692;52.998;9.116;2023-05-07T03:31:25;17.70;;;14.57;;
33327;SDS011;19692;52.998;9.116;2023-05-07T03:33:54;16.70;;;13.30;;
33327;SDS011;19692;52.998;9.116;2023-05-07T03:36:22;17.13;;;14.50;;
33327;SDS011;19692;52.998;9.116;2023-05-07T03:38:48;15.83;;;13.20;;
33327;SDS011;19692;52.998;9.116;2023-05-07T03:41:15;15.93;;;13.50;;
33327;SDS011;19692;52.998;9.116;2023-05-07T03:43:41;16.87;;;13.67;;
33327;SDS011;19692;52.998;9.116;2023-05-07T03:46:06;14.73;;;12.90;;
33327;SDS011;19692;52.998;9.116;2023-05-07T03:48:32;16.47;;;14.00;;
33327;SDS011;19692;52.998;9.116;2023-05-07T03:50:58;15.10;;;12.63;;
33327;SDS011;19692;52.998;9.116;2023-05-07T03:53:24;16.20;;;12.53;;
33327;SDS011;19692;52.998;9.116;2023-05-07T03:55:50;14.10;;;12.50;;
33327;SDS011;19692;52.998;9.116;2023-05-07T03:58:15;15.13;;;11.90;;
33327;SDS011;19692;52.998;9.116;2023-05-07T04:00:41;13.83;;;12.43;;
33327;SDS011;19692;52.998;9.116;2023-05-07T04:03:07;16.67;;;13.07;;
33327;SDS011;19692;52.998;9.116;2023-05-07T04:05:33;15.10;;;13.50;;
33327;SDS011;19692;52.998;9.116;2023-05-07T04:07:59;15.50;;;13.90;;
33327;SDS011;19692;52.998;9.116;2023-05-07T04:10:25;15.10;;;12.83;;
33327;SDS011;19692;52.998;9.116;2023-05-07T04:12:51;15.30;;;12.40;;
33327;SDS011;19692;52.998;9.116;2023-05-07T04:15:16;13.90;;;12.40;;
33327;SDS011;19692;52.998;9.116;2023-05-07T04:17:42;14.30;;;12.10;;
33327;SDS011;19692;52.998;9.116;2023-05-07T04:20:13;16.40;;;13.00;;
33327;SDS011;19692;52.998;9.116;2023-05-07T04:22:41;17.23;;;13.50;;
33327;SDS011;19692;52.998;9.116;2023-05-07T04:25:07;15.80;;;13.87;;
33327;SDS011;19692;52.998;9.116;2023-05-07T04:27:36;16.63;;;13.87;;
33327;SDS011;19692;52.998;9.116;2023-05-07T04:30:02;14.90;;;13.03;;
33327;SDS011;19692;52.998;9.116;2023-05-07T04:32:29;14.67;;;13.07;;
33327;SDS011;19692;52.998;9.116;2023-05-07T04:34:55;14.47;;;12.93;;
33327;SDS011;19692;52.998;9.116;2023-05-07T04:37:21;13.73;;;12.23;;
33327;SDS011;19692;52.998;9.116;2023-05-07T04:39:48;13.73;;;12.33;;
33327;SDS011;19692;52.998;9.116;2023-05-07T04:42:17;13.57;;;12.17;;
33327;SDS011;19692;52.998;9.116;2023-05-07T04:44:43;12.97;;;11.47;;
33327;SDS011;19692;52.998;9.116;2023-05-07T04:47:10;12.70;;;11.40;;
33327;SDS011;19692;52.998;9.116;2023-05-07T04:49:36;13.57;;;11.13;;
33327;SDS011;19692;52.998;9.116;2023-05-07T04:52:03;14.27;;;11.87;;
33327;SDS011;19692;52.998;9.116;2023-05-07T04:54:29;12.30;;;11.10;;
33327;SDS011;19692;52.998;9.116;2023-05-07T04:56:55;12.83;;;11.33;;
33327;SDS011;19692;52.998;9.116;2023-05-07T04:59:21;12.90;;;11.60;;
33327;SDS011;19692;52.998;9.116;2023-05-07T05:01:47;13.83;;;12.30;;
33327;SDS011;19692;52.998;9.116;2023-05-07T05:04:13;13.17;;;11.77;;
33327;SDS011;19692;52.998;9.116;2023-05-07T05:06:39;12.60;;;11.40;;
33327;SDS011;19692;52.998;9.116;2023-05-07T05:09:04;13.30;;;11.87;;
33327;SDS011;19692;52.998;9.116;2023-05-07T05:11:31;11.97;;;10.77;;
33327;SDS011;19692;52.998;9.116;2023-05-07T05:13:56;13.70;;;11.47;;
33327;SDS011;19692;52.998;9.116;2023-05-07T05:16:24;11.03;;;10.03;;
33327;SDS011;19692;52.998;9.116;2023-05-07T05:18:50;11.53;;;10.40;;
33327;SDS011;19692;52.998;9.116;2023-05-07T05:21:17;12.23;;;11.03;;
33327;SDS011;19692;52.998;9.116;2023-05-07T05:23:42;11.43;;;10.33;;
33327;SDS011;19692;52.998;9.116;2023-05-07T05:26:08;11.80;;;10.50;;
33327;SDS011;19692;52.998;9.116;2023-05-07T05:28:34;11.23;;;10.13;;
33327;SDS011;19692;52.998;9.116;2023-05-07T05:31:00;11.77;;;10.50;;
33327;SDS011;19692;52.998;9.116;2023-05-07T05:33:25;13.10;;;10.10;;
33327;SDS011;19692;52.998;9.116;2023-05-07T05:35:53;11.23;;;10.13;;
33327;SDS011;19692;52.998;9.116;2023-05-07T05:38:19;11.40;;;10.27;;
33327;SDS011;19692;52.998;9.116;2023-05-07T05:40:45;13.87;;;12.50;;
33327;SDS011;19692;52.998;9.116;2023-05-07T05:43:12;10.27;;;9.27;;
33327;SDS011;19692;52.998;9.116;2023-05-07T05:45:38;11.17;;;10.17;;
33327;SDS011;19692;52.998;9.116;2023-05-07T05:48:04;10.73;;;9.63;;
33327;SDS011;19692;52.998;9.116;2023-05-07T05:50:31;10.57;;;9.47;;
33327;SDS011;19692;52.998;9.116;2023-05-07T05:52:57;10.57;;;9.57;;
33327;SDS011;19692;52.998;9.116;2023-05-07T05:55:22;10.20;;;9.20;;
33327;SDS011;19692;52.998;9.116;2023-05-07T05:57:48;10.33;;;9.33;;
33327;SDS011;19692;52.998;9.116;2023-05-07T06:00:15;10.43;;;9.47;;
33327;SDS011;19692;52.998;9.116;2023-05-07T06:02:41;10.00;;;9.10;;
33327;SDS011;19692;52.998;9.116;2023-05-07T06:05:07;9.23;;;8.37;;
33327;SDS011;19692;52.998;9.116;2023-05-07T06:07:34;10.10;;;9.10;;
33327;SDS011;19692;52.998;9.116;2023-05-07T06:10:00;9.97;;;8.97;;
33327;SDS011;19692;52.998;9.116;2023-05-07T06:12:26;9.80;;;8.87;;
33327;SDS011;19692;52.998;9.116;2023-05-07T06:14:52;10.17;;;9.07;;
33327;SDS011;19692;52.998;9.116;2023-05-07T06:17:18;9.87;;;8.97;;
33327;SDS011;19692;52.998;9.116;2023-05-07T06:19:43;10.03;;;9.13;;
33327;SDS011;19692;52.998;9.116;2023-05-07T06:22:09;9.57;;;8.67;;
33327;SDS011;19692;52.998;9.116;2023-05-07T06:24:35;9.93;;;8.97;;
33327;SDS011;19692;52.998;9.116;2023-05-07T06:27:01;10.97;;;9.97;;
33327;SDS011;19692;52.998;9.116;2023-05-07T06:29:26;10.60;;;9.47;;
33327;SDS011;19692;52.998;9.116;2023-05-07T06:31:52;10.03;;;9.00;;
33327;SDS011;19692;52.998;9.116;2023-05-07T06:34:18;9.97;;;9.07;;
33327;SDS011;19692;52.998;9.116;2023-05-07T06:36:44;9.87;;;8.97;;
33327;SDS011;19692;52.998;9.116;2023-05-07T06:39:10;10.87;;;9.87;;
33327;SDS011;19692;52.998;9.116;2023-05-07T06:41:35;9.87;;;8.97;;
33327;SDS011;19692;52.998;9.116;2023-05-07T06:44:02;10.37;;;9.37;;
33327;SDS011;19692;52.998;9.116;2023-05-07T06:46:28;10.77;;;9.67;;
33327;SDS011;19692;52.998;9.116;2023-05-07T06:48:54;10.37;;;9.37;;
33327;SDS011;19692;52.998;9.116;2023-05-07T06:51:21;11.10;;;10.00;;
33327;SDS011;19692;52.998;9.116;2023-05-07T06:53:47;11.00;;;9.90;;
33327;SDS011;19692;52.998;9.116;2023-05-07T06:56:13;10.50;;;9.57;;
33327;SDS011;19692;52.998;9.116;2023-05-07T06:58:38;10.73;;;9.73;;
33327;SDS011;19692;52.998;9.116;2023-05-07T07:01:04;11.33;;;10.23;;
33327;SDS011;19692;52.998;9.116;2023-05-07T07:03:30;11.73;;;9.57;;
33327;SDS011;19692;52.998;9.116;2023-05-07T07:05:56;10.43;;;9.53;;
33327;SDS011;19692;52.998;9.116;2023-05-07T07:08:22;9.57;;;8.67;;
33327;SDS011;19692;52.998;9.116;2023-05-07T07:10:47;9.83;;;8.83;;
33327;SDS011;19692;52.998;9.116;2023-05-07T07:13:13;10.47;;;9.57;;
33327;SDS011;19692;52.998;9.116;2023-05-07T07:15:39;10.30;;;9.30;;
33327;SDS011;19692;52.998;9.116;2023-05-07T07:18:05;9.87;;;8.97;;
33327;SDS011;19692;52.998;9.116;2023-05-07T07:20:31;10.37;;;9.30;;
33327;SDS011;19692;52.998;9.116;2023-05-07T07:22:57;9.60;;;8.70;;
33327;SDS011;19692;52.998;9.116;2023-05-07T07:25:23;9.77;;;8.77;;
33327;SDS011;19692;52.998;9.116;2023-05-07T07:27:49;9.30;;;8.40;;
33327;SDS011;19692;52.998;9.116;2023-05-07T07:30:15;9.23;;;8.30;;
33327;SDS011;19692;52.998;9.116;2023-05-07T07:32:40;8.97;;;8.17;;
33327;SDS011;19692;52.998;9.116;2023-05-07T07:35:07;8.43;;;7.63;;
33327;SDS011;19692;52.998;9.116;2023-05-07T07:37:33;9.53;;;8.53;;
33327;SDS011;19692;52.998;9.116;2023-05-07T07:39:59;9.40;;;8.50;;
33327;SDS011;19692;52.998;9.116;2023-05-07T07:42:25;8.70;;;7.80;;
33327;SDS011;19692;52.998;9.116;2023-05-07T07:44:51;8.00;;;7.20;;
33327;SDS011;19692;52.998;9.116;2023-05-07T07:47:17;8.23;;;7.40;;
33327;SDS011;19692;52.998;9.116;2023-05-07T07:49:43;8.00;;;7.20;;
33327;SDS011;19692;52.998;9.116;2023-05-07T07:52:08;8.20;;;7.47;;
33327;SDS011;19692;52.998;9.116;2023-05-07T07:54:34;8.60;;;7.70;;
33327;SDS011;19692;52.998;9.116;2023-05-07T07:57:00;8.90;;;8.00;;
33327;SDS011;19692;52.998;9.116;2023-05-07T07:59:26;10.07;;;9.03;;
33327;SDS011;19692;52.998;9.116;2023-05-07T08:01:52;8.50;;;7.70;;
33327;SDS011;19692;52.998;9.116;2023-05-07T08:04:21;8.80;;;8.00;;
33327;SDS011;19692;52.998;9.116;2023-05-07T08:06:47;8.10;;;7.30;;
33327;SDS011;19692;52.998;9.116;2023-05-07T08:09:13;8.97;;;8.10;;
33327;SDS011;19692;52.998;9.116;2023-05-07T08:11:39;8.90;;;8.00;;
33327;SDS011;19692;52.998;9.116;2023-05-07T08:14:05;8.77;;;7.97;;
33327;SDS011;19692;52.998;9.116;2023-05-07T08:16:31;8.80;;;7.90;;
33327;SDS011;19692;52.998;9.116;2023-05-07T08:18:56;8.60;;;7.80;;
33327;SDS011;19692;52.998;9.116;2023-05-07T08:21:22;8.10;;;7.40;;
33327;SDS011;19692;52.998;9.116;2023-05-07T08:23:48;8.33;;;7.63;;
33327;SDS011;19692;52.998;9.116;2023-05-07T08:26:14;7.97;;;7.17;;
33327;SDS011;19692;52.998;9.116;2023-05-07T08:28:40;7.80;;;7.10;;
33327;SDS011;19692;52.998;9.116;2023-05-07T08:31:05;7.90;;;7.13;;
33327;SDS011;19692;52.998;9.116;2023-05-07T08:33:31;9.03;;;8.23;;
33327;SDS011;19692;52.998;9.116;2023-05-07T08:35:57;8.60;;;7.87;;
33327;SDS011;19692;52.998;9.116;2023-05-07T08:38:23;8.77;;;7.97;;
33327;SDS011;19692;52.998;9.116;2023-05-07T08:40:48;9.20;;;8.30;;
33327;SDS011;19692;52.998;9.116;2023-05-07T08:43:14;8.67;;;7.87;;
33327;SDS011;19692;52.998;9.116;2023-05-07T08:45:40;10.23;;;9.30;;
33327;SDS011;19692;52.998;9.116;2023-05-07T08:48:14;9.73;;;8.90;;
33327;SDS011;19692;52.998;9.116;2023-05-07T08:50:41;8.97;;;8.17;;
33327;SDS011;19692;52.998;9.116;2023-05-07T08:53:07;9.30;;;8.40;;
33327;SDS011;19692;52.998;9.116;2023-05-07T08:55:33;9.27;;;8.27;;
33327;SDS011;19692;52.998;9.116;2023-05-07T08:57:59;9.70;;;8.80;;
33327;SDS011;19692;52.998;9.116;2023-05-07T09:00:26;9.33;;;8.43;;
33327;SDS011;19692;52.998;9.116;2023-05-07T09:02:52;14.20;;;8.70;;
33327;SDS011;19692;52.998;9.116;2023-05-07T09:05:19;9.40;;;8.50;;
33327;SDS011;19692;52.998;9.116;2023-05-07T09:07:45;9.03;;;7.93;;
33327;SDS011;19692;52.998;9.116;2023-05-07T09:10:11;9.60;;;8.70;;
33327;SDS011;19692;52.998;9.116;2023-05-07T09:12:37;10.50;;;9.50;;
33327;SDS011;19692;52.998;9.116;2023-05-07T09:15:04;9.43;;;8.53;;
33327;SDS011;19692;52.998;9.116;2023-05-07T09:17:31;10.10;;;9.20;;
33327;SDS011;19692;52.998;9.116;2023-05-07T09:20:01;8.93;;;8.10;;
33327;SDS011;19692;52.998;9.116;2023-05-07T09:22:32;9.90;;;8.90;;
33327;SDS011;19692;52.998;9.116;2023-05-07T09:24:58;9.87;;;8.87;;
33327;SDS011;19692;52.998;9.116;2023-05-07T09:27:25;9.60;;;8.57;;
33327;SDS011;19692;52.998;9.116;2023-05-07T09:29:51;9.80;;;8.90;;
33327;SDS011;19692;52.998;9.116;2023-05-07T09:32:17;9.77;;;8.77;;
33327;SDS011;19692;52.998;9.116;2023-05-07T09:34:43;8.83;;;8.03;;
33327;SDS011;19692;52.998;9.116;2023-05-07T09:37:10;10.63;;;9.63;;
33327;SDS011;19692;52.998;9.116;2023-05-07T09:39:38;9.40;;;8.50;;
33327;SDS011;19692;52.998;9.116;2023-05-07T09:42:12;9.90;;;8.97;;
33327;SDS011;19692;52.998;9.116;2023-05-07T09:44:40;10.17;;;9.17;;
33327;SDS011;19692;52.998;9.116;2023-05-07T09:47:06;11.10;;;9.40;;
33327;SDS011;19692;52.998;9.116;2023-05-07T09:49:36;9.87;;;8.97;;
33327;SDS011;19692;52.998;9.116;2023-05-07T09:52:05;10.30;;;9.17;;
33327;SDS011;19692;52.998;9.116;2023-05-07T09:54:33;9.73;;;8.83;;
33327;SDS011;19692;52.998;9.116;2023-05-07T09:57:02;9.83;;;8.83;;
33327;SDS011;19692;52.998;9.116;2023-05-07T09:59:33;10.27;;;9.07;;
33327;SDS011;19692;52.998;9.116;2023-05-07T10:02:02;11.20;;;10.03;;
33327;SDS011;19692;52.998;9.116;2023-05-07T10:04:29;10.30;;;9.30;;
33327;SDS011;19692;52.998;9.116;2023-05-07T10:06:56;10.07;;;9.13;;
33327;SDS011;19692;52.998;9.116;2023-05-07T10:09:23;10.73;;;9.73;;
33327;SDS011;19692;52.998;9.116;2023-05-07T10:11:50;10.47;;;8.80;;
33327;SDS011;19692;52.998;9.116;2023-05-07T10:14:17;10.33;;;9.33;;
33327;SDS011;19692;52.998;9.116;2023-05-07T10:16:44;11.03;;;9.67;;
33327;SDS011;19692;52.998;9.116;2023-05-07T10:19:12;10.03;;;8.67;;
33327;SDS011;19692;52.998;9.116;2023-05-07T10:21:42;10.47;;;9.47;;
33327;SDS011;19692;52.998;9.116;2023-05-07T10:24:21;9.73;;;8.80;;
33327;SDS011;19692;52.998;9.116;2023-05-07T10:26:57;9.37;;;8.23;;
33327;SDS011;19692;52.998;9.116;2023-05-07T10:34:37;10.00;;;9.10;;
33327;SDS011;19692;52.998;9.116;2023-05-07T10:37:06;9.10;;;8.20;;
33327;SDS011;19692;52.998;9.116;2023-05-07T10:39:32;9.20;;;8.40;;
33327;SDS011;19692;52.998;9.116;2023-05-07T10:42:07;10.87;;;8.40;;
33327;SDS011;19692;52.998;9.116;2023-05-07T10:44:37;8.93;;;8.13;;
33327;SDS011;19692;52.998;9.116;2023-05-07T10:47:06;10.37;;;8.70;;
33327;SDS011;19692;52.998;9.116;2023-05-07T10:49:49;9.40;;;8.40;;
33327;SDS011;19692;52.998;9.116;2023-05-07T10:52:31;8.67;;;7.87;;
33327;SDS011;19692;52.998;9.116;2023-05-07T10:57:44;8.97;;;8.17;;
33327;SDS011;19692;52.998;9.116;2023-05-07T11:05:29;9.70;;;8.67;;
33327;SDS011;19692;52.998;9.116;2023-05-07T11:07:57;8.20;;;7.50;;
33327;SDS011;19692;52.998;9.116;2023-05-07T11:16:25;9.10;;;8.20;;
33327;SDS011;19692;52.998;9.116;2023-05-07T11:18:55;8.63;;;7.83;;
33327;SDS011;19692;52.998;9.116;2023-05-07T11:21:37;8.00;;;7.20;;
33327;SDS011;19692;52.998;9.116;2023-05-07T11:24:05;8.90;;;8.00;;
33327;SDS011;19692;52.998;9.116;2023-05-07T11:26:42;8.57;;;7.77;;
33327;SDS011;19692;52.998;9.116;2023-05-07T11:29:13;8.27;;;7.57;;
33327;SDS011;19692;52.998;9.116;2023-05-07T11:31:44;8.73;;;7.97;;
33327;SDS011;19692;52.998;9.116;2023-05-07T11:34:15;8.77;;;7.97;;
33327;SDS011;19692;52.998;9.116;2023-05-07T11:36:51;9.00;;;8.20;;
33327;SDS011;19692;52.998;9.116;2023-05-07T11:39:27;8.13;;;7.33;;
33327;SDS011;19692;52.998;9.116;2023-05-07T11:41:58;8.63;;;7.80;;
33327;SDS011;19692;52.998;9.116;2023-05-07T11:44:25;8.50;;;7.70;;
33327;SDS011;19692;52.998;9.116;2023-05-07T11:47:11;8.50;;;7.70;;
33327;SDS011;19692;52.998;9.116;2023-05-07T11:49:42;8.10;;;7.40;;
33327;SDS011;19692;52.998;9.116;2023-05-07T11:52:10;7.17;;;6.57;;
33327;SDS011;19692;52.998;9.116;2023-05-07T11:54:38;8.33;;;7.47;;
33327;SDS011;19692;52.998;9.116;2023-05-07T11:57:04;8.63;;;7.83;;
33327;SDS011;19692;52.998;9.116;2023-05-07T11:59:30;7.50;;;6.90;;
33327;SDS011;19692;52.998;9.116;2023-05-07T12:02:07;7.10;;;6.40;;
33327;SDS011;19692;52.998;9.116;2023-05-07T12:04:33;8.20;;;7.30;;
33327;SDS011;19692;52.998;9.116;2023-05-07T12:06:58;8.57;;;7.87;;
33327;SDS011;19692;52.998;9.116;2023-05-07T12:09:24;7.23;;;6.53;;
33327;SDS011;19692;52.998;9.116;2023-05-07T12:11:51;8.23;;;7.30;;
33327;SDS011;19692;52.998;9.116;2023-05-07T12:14:17;8.20;;;7.40;;
33327;SDS011;19692;52.998;9.116;2023-05-07T12:16:43;7.30;;;6.70;;
33327;SDS011;19692;52.998;9.116;2023-05-07T12:19:10;6.37;;;5.80;;
33327;SDS011;19692;52.998;9.116;2023-05-07T12:21:39;6.47;;;5.97;;
33327;SDS011;19692;52.998;9.116;2023-05-07T12:24:06;6.80;;;6.30;;
33327;SDS011;19692;52.998;9.116;2023-05-07T12:26:33;6.60;;;6.10;;
33327;SDS011;19692;52.998;9.116;2023-05-07T12:29:04;6.30;;;5.70;;
33327;SDS011;19692;52.998;9.116;2023-05-07T12:31:29;6.33;;;5.83;;
33327;SDS011;19692;52.998;9.116;2023-05-07T12:33:55;6.70;;;6.20;;
33327;SDS011;19692;52.998;9.116;2023-05-07T12:36:21;8.23;;;7.53;;
33327;SDS011;19692;52.998;9.116;2023-05-07T12:38:48;6.63;;;6.03;;
33327;SDS011;19692;52.998;9.116;2023-05-07T12:41:15;5.80;;;5.30;;
33327;SDS011;19692;52.998;9.116;2023-05-07T12:43:43;6.33;;;5.73;;
33327;SDS011;19692;52.998;9.116;2023-05-07T12:46:09;6.30;;;5.80;;
33327;SDS011;19692;52.998;9.116;2023-05-07T12:48:36;6.13;;;5.53;;
33327;SDS011;19692;52.998;9.116;2023-05-07T12:51:03;5.80;;;5.40;;
33327;SDS011;19692;52.998;9.116;2023-05-07T12:53:32;7.13;;;6.63;;
33327;SDS011;19692;52.998;9.116;2023-05-07T12:55:58;5.90;;;5.43;;
33327;SDS011;19692;52.998;9.116;2023-05-07T12:58:25;6.37;;;5.87;;
33327;SDS011;19692;52.998;9.116;2023-05-07T13:00:53;5.53;;;5.07;;
33327;SDS011;19692;52.998;9.116;2023-05-07T13:03:26;6.47;;;5.97;;
33327;SDS011;19692;52.998;9.116;2023-05-07T13:06:04;6.13;;;5.63;;
33327;SDS011;19692;52.998;9.116;2023-05-07T13:08:33;6.90;;;6.30;;
33327;SDS011;19692;52.998;9.116;2023-05-07T13:11:02;6.97;;;6.33;;
33327;SDS011;19692;52.998;9.116;2023-05-07T13:13:33;6.93;;;6.33;;
33327;SDS011;19692;52.998;9.116;2023-05-07T13:16:00;6.60;;;6.00;;
33327;SDS011;19692;52.998;9.116;2023-05-07T13:18:28;6.70;;;6.13;;
33327;SDS011;19692;52.998;9.116;2023-05-07T13:20:56;6.80;;;6.20;;
33327;SDS011;19692;52.998;9.116;2023-05-07T13:23:22;6.70;;;6.10;;
33327;SDS011;19692;52.998;9.116;2023-05-07T13:25:48;6.77;;;6.20;;
33327;SDS011;19692;52.998;9.116;2023-05-07T13:28:15;6.47;;;5.97;;
33327;SDS011;19692;52.998;9.116;2023-05-07T13:30:41;6.33;;;5.80;;
33327;SDS011;19692;52.998;9.116;2023-05-07T13:33:07;6.47;;;5.87;;
33327;SDS011;19692;52.998;9.116;2023-05-07T13:35:33;6.80;;;6.30;;
33327;SDS011;19692;52.998;9.116;2023-05-07T13:37:59;7.00;;;6.47;;
33327;SDS011;19692;52.998;9.116;2023-05-07T13:40:25;6.80;;;6.20;;
33327;SDS011;19692;52.998;9.116;2023-05-07T13:42:51;7.20;;;6.60;;
33327;SDS011;19692;52.998;9.116;2023-05-07T13:45:20;7.53;;;6.87;;
33327;SDS011;19692;52.998;9.116;2023-05-07T13:47:46;7.57;;;6.97;;
33327;SDS011;19692;52.998;9.116;2023-05-07T13:50:12;9.17;;;8.37;;
33327;SDS011;19692;52.998;9.116;2023-05-07T13:52:41;7.60;;;7.00;;
33327;SDS011;19692;52.998;9.116;2023-05-07T13:55:09;7.83;;;7.23;;
33327;SDS011;19692;52.998;9.116;2023-05-07T13:57:35;7.43;;;6.73;;
33327;SDS011;19692;52.998;9.116;2023-05-07T14:00:03;7.73;;;7.13;;
33327;SDS011;19692;52.998;9.116;2023-05-07T14:02:30;7.53;;;6.93;;
33327;SDS011;19692;52.998;9.116;2023-05-07T14:04:56;7.23;;;6.60;;
33327;SDS011;19692;52.998;9.116;2023-05-07T14:07:22;8.77;;;6.97;;
33327;SDS011;19692;52.998;9.116;2023-05-07T14:09:48;7.03;;;6.10;;
33327;SDS011;19692;52.998;9.116;2023-05-07T14:12:13;8.70;;;7.00;;
33327;SDS011;19692;52.998;9.116;2023-05-07T14:14:39;6.57;;;6.07;;
33327;SDS011;19692;52.998;9.116;2023-05-07T14:17:05;6.80;;;6.20;;
33327;SDS011;19692;52.998;9.116;2023-05-07T14:19:40;7.67;;;6.97;;
33327;SDS011;19692;52.998;9.116;2023-05-07T14:22:05;6.80;;;6.20;;
33327;SDS011;19692;52.998;9.116;2023-05-07T14:24:31;6.90;;;6.30;;
33327;SDS011;19692;52.998;9.116;2023-05-07T14:26:57;7.47;;;6.77;;
33327;SDS011;19692;52.998;9.116;2023-05-07T14:29:25;7.23;;;6.53;;
33327;SDS011;19692;52.998;9.116;2023-05-07T14:31:51;6.53;;;5.93;;
33327;SDS011;19692;52.998;9.116;2023-05-07T14:34:16;6.77;;;6.27;;
33327;SDS011;19692;52.998;9.116;2023-05-07T14:36:42;7.20;;;6.60;;
33327;SDS011;19692;52.998;9.116;2023-05-07T14:39:09;8.30;;;6.77;;
33327;SDS011;19692;52.998;9.116;2023-05-07T14:41:34;7.80;;;7.10;;
33327;SDS011;19692;52.998;9.116;2023-05-07T14:44:00;7.07;;;6.40;;
33327;SDS011;19692;52.998;9.116;2023-05-07T14:46:28;6.93;;;6.33;;
33327;SDS011;19692;52.998;9.116;2023-05-07T14:48:55;7.20;;;6.50;;
33327;SDS011;19692;52.998;9.116;2023-05-07T14:51:22;7.50;;;6.80;;
33327;SDS011;19692;52.998;9.116;2023-05-07T14:53:49;7.47;;;6.37;;